createdAt,value
2023-05-04T00:00:28.206Z,16.51
2023-05-04T00:01:28.232Z,16.58
2023-05-04T00:02:28.443Z,16.59
2023-05-04T00:03:28.514Z,16.62
2023-05-04T00:04:28.503Z,16.65
2023-05-04T00:05:28.530Z,16.66
2023-05-04T00:06:28.605Z,16.69
2023-05-04T00:07:28.639Z,16.69
2023-05-04T00:08:28.715Z,16.72
2023-05-04T00:09:28.814Z,16.75
2023-05-04T00:10:28.831Z,16.73
2023-05-04T00:11:29.259Z,16.75
2023-05-04T00:12:29.024Z,16.75
2023-05-04T00:13:29.069Z,16.79
2023-05-04T00:14:29.063Z,16.79
2023-05-04T00:15:29.147Z,16.78
2023-05-04T00:16:29.206Z,16.79
2023-05-04T00:17:29.302Z,16.79
2023-05-04T00:18:29.343Z,16.79
2023-05-04T00:19:29.452Z,16.79
2023-05-04T00:20:29.444Z,16.82
2023-05-04T00:21:29.501Z,16.80
2023-05-04T00:22:29.552Z,16.80
2023-05-04T00:23:29.575Z,16.78
2023-05-04T00:24:29.692Z,16.80
2023-05-04T00:25:29.728Z,16.80
2023-05-04T00:26:30.255Z,16.79
2023-05-04T00:27:29.866Z,16.78
2023-05-04T00:28:29.892Z,16.76
2023-05-04T00:29:29.959Z,16.78
2023-05-04T00:30:30.038Z,16.75
2023-05-04T00:31:30.134Z,16.72
2023-05-04T00:32:30.198Z,16.73
2023-05-04T00:33:30.439Z,16.72
2023-05-04T00:34:30.202Z,16.70
2023-05-04T00:35:30.304Z,16.70
2023-05-04T00:36:30.732Z,16.72
2023-05-04T00:37:30.368Z,16.69
2023-05-04T00:38:30.455Z,16.73
2023-05-04T00:39:30.433Z,16.69
2023-05-04T00:40:30.476Z,16.69
2023-05-04T00:41:30.565Z,16.68
2023-05-04T00:42:30.477Z,16.66
2023-05-04T00:43:30.497Z,16.68
2023-05-04T00:44:30.642Z,16.68
2023-05-04T00:45:30.535Z,16.68
2023-05-04T00:46:31.311Z,16.66
2023-05-04T00:47:30.595Z,16.65
2023-05-04T00:48:30.557Z,16.63
2023-05-04T00:49:30.647Z,16.62
2023-05-04T00:50:30.642Z,16.59
2023-05-04T00:51:30.642Z,16.59
2023-05-04T00:52:30.640Z,16.58
2023-05-04T00:53:30.666Z,16.59
2023-05-04T00:54:30.634Z,16.61
2023-05-04T00:55:30.648Z,16.59
2023-05-04T00:56:30.772Z,16.58
2023-05-04T00:57:30.604Z,16.59
2023-05-04T00:58:30.691Z,16.54
2023-05-04T00:59:30.641Z,16.54
2023-05-04T01:00:30.626Z,16.54
2023-05-04T01:01:30.814Z,16.51
2023-05-04T01:02:30.691Z,16.52
2023-05-04T01:03:30.687Z,16.51
2023-05-04T01:04:30.713Z,16.50
2023-05-04T01:05:30.672Z,16.51
2023-05-04T01:06:30.677Z,16.51
2023-05-04T01:07:30.660Z,16.48
2023-05-04T01:08:30.675Z,16.47
2023-05-04T01:09:30.648Z,16.45
2023-05-04T01:10:30.779Z,16.44
2023-05-04T01:11:30.672Z,16.47
2023-05-04T01:12:30.662Z,16.47
2023-05-04T01:13:30.678Z,16.47
2023-05-04T01:14:30.692Z,16.41
2023-05-04T01:15:30.708Z,16.44
2023-05-04T01:16:30.716Z,16.38
2023-05-04T01:17:30.729Z,16.34
2023-05-04T01:18:30.746Z,16.20
2023-05-04T01:19:30.717Z,16.21
2023-05-04T01:20:30.712Z,16.21
2023-05-04T01:21:30.781Z,16.17
2023-05-04T01:22:30.752Z,16.25
2023-05-04T01:23:30.744Z,16.10
2023-05-04T01:24:30.788Z,16.14
2023-05-04T01:25:30.782Z,16.16
2023-05-04T01:26:30.773Z,16.16
2023-05-04T01:27:30.765Z,16.18
2023-05-04T01:28:30.780Z,16.18
2023-05-04T01:29:30.830Z,16.17
2023-05-04T01:30:30.885Z,16.21
2023-05-04T01:32:30.845Z,16.25
2023-05-04T01:33:30.852Z,16.27
2023-05-04T01:34:30.854Z,16.28
2023-05-04T01:35:30.873Z,16.28
2023-05-04T01:36:30.959Z,16.28
2023-05-04T01:37:30.875Z,16.31
2023-05-04T01:38:30.903Z,16.29
2023-05-04T01:39:30.892Z,16.28
2023-05-04T01:40:30.900Z,16.29
2023-05-04T01:41:31.012Z,16.25
2023-05-04T01:42:31.010Z,16.24
2023-05-04T01:43:30.984Z,16.24
2023-05-04T01:44:31.006Z,16.21
2023-05-04T01:45:31.026Z,16.25
2023-05-04T01:46:31.373Z,16.21
2023-05-04T01:47:31.075Z,16.10
2023-05-04T01:48:31.116Z,16.18
2023-05-04T01:49:31.120Z,16.18
2023-05-04T01:50:31.132Z,16.23
2023-05-04T01:51:31.285Z,16.21
2023-05-04T01:52:31.274Z,16.21
2023-05-04T01:53:31.282Z,16.23
2023-05-04T01:54:31.285Z,16.21
2023-05-04T01:55:31.318Z,16.18
2023-05-04T01:56:31.399Z,16.21
2023-05-04T01:57:31.401Z,16.18
2023-05-04T01:58:31.425Z,16.18
2023-05-04T01:59:31.458Z,16.14
2023-05-04T02:00:31.507Z,16.13
2023-05-04T02:01:31.756Z,16.11
2023-05-04T02:02:31.858Z,16.08
2023-05-04T02:03:31.787Z,16.07
2023-05-04T02:04:31.732Z,16.08
2023-05-04T02:05:31.785Z,16.07
2023-05-04T02:06:31.866Z,16.06
2023-05-04T02:07:31.910Z,16.06
2023-05-04T02:08:31.976Z,16.07
2023-05-04T02:09:32.035Z,16.04
2023-05-04T02:10:32.044Z,16.01
2023-05-04T02:11:32.124Z,16.01
2023-05-04T02:12:32.234Z,16.00
2023-05-04T02:13:32.244Z,16.03
2023-05-04T02:14:32.308Z,16.01
2023-05-04T02:15:32.372Z,16.01
2023-05-04T02:16:32.594Z,15.98
2023-05-04T02:17:32.507Z,16.00
2023-05-04T02:18:32.553Z,16.00
2023-05-04T02:19:32.598Z,16.00
2023-05-04T02:20:32.692Z,16.00
2023-05-04T02:21:32.743Z,15.92
2023-05-04T02:22:32.782Z,15.85
2023-05-04T02:23:32.824Z,15.90
2023-05-04T02:24:32.899Z,15.90
2023-05-04T02:25:33.008Z,15.92
2023-05-04T02:26:32.992Z,15.92
2023-05-04T02:27:33.018Z,15.92
2023-05-04T02:28:33.160Z,15.90
2023-05-04T02:29:33.176Z,15.90
2023-05-04T02:30:33.251Z,15.92
2023-05-04T02:31:33.317Z,15.92
2023-05-04T02:32:33.378Z,15.90
2023-05-04T02:33:33.451Z,15.90
2023-05-04T02:34:33.438Z,15.90
2023-05-04T02:35:33.601Z,15.90
2023-05-04T02:36:33.599Z,15.90
2023-05-04T02:37:33.839Z,15.92
2023-05-04T02:38:33.708Z,15.90
2023-05-04T02:39:33.747Z,15.87
2023-05-04T02:40:33.836Z,15.86
2023-05-04T02:41:33.854Z,15.86
2023-05-04T02:42:33.962Z,15.83
2023-05-04T02:43:33.948Z,15.86
2023-05-04T02:44:33.990Z,15.83
2023-05-04T02:45:34.126Z,15.83
2023-05-04T02:46:34.086Z,15.82
2023-05-04T02:47:34.161Z,15.79
2023-05-04T02:48:34.197Z,15.80
2023-05-04T02:49:34.224Z,15.80
2023-05-04T02:50:34.216Z,15.78
2023-05-04T02:51:34.256Z,15.76
2023-05-04T02:52:34.357Z,15.76
2023-05-04T02:53:34.326Z,15.78
2023-05-04T02:54:34.335Z,15.76
2023-05-04T02:55:34.360Z,15.73
2023-05-04T02:56:34.361Z,15.70
2023-05-04T02:57:34.382Z,15.69
2023-05-04T02:58:34.373Z,15.69
2023-05-04T02:59:34.357Z,15.68
2023-05-04T03:00:34.426Z,15.66
2023-05-04T03:01:35.010Z,15.65
2023-05-04T03:02:34.887Z,15.63
2023-05-04T03:03:34.389Z,15.63
2023-05-04T03:04:34.472Z,15.62
2023-05-04T03:05:34.408Z,15.61
2023-05-04T03:06:34.411Z,15.58
2023-05-04T03:07:34.564Z,15.59
2023-05-04T03:08:34.422Z,15.56
2023-05-04T03:09:34.473Z,15.56
2023-05-04T03:10:34.470Z,15.56
2023-05-04T03:11:34.479Z,15.56
2023-05-04T03:12:34.726Z,15.53
2023-05-04T03:13:34.495Z,15.56
2023-05-04T03:14:34.543Z,15.56
2023-05-04T03:15:34.654Z,15.53
2023-05-04T03:16:34.546Z,15.52
2023-05-04T03:17:34.636Z,15.52
2023-05-04T03:19:54.619Z,15.45
2023-05-04T03:20:54.667Z,15.48
2023-05-04T03:21:54.615Z,15.51
2023-05-04T03:22:54.587Z,15.52
2023-05-04T03:23:54.634Z,15.53
2023-05-04T03:24:54.602Z,15.53
2023-05-04T03:25:54.569Z,15.51
2023-05-04T03:26:54.553Z,15.51
2023-05-04T03:27:54.559Z,15.49
2023-05-04T03:28:54.549Z,15.49
2023-05-04T03:29:54.595Z,15.48
2023-05-04T03:30:54.530Z,15.46
2023-05-04T03:31:54.555Z,15.48
2023-05-04T03:32:54.586Z,15.44
2023-05-04T03:33:54.505Z,15.45
2023-05-04T03:34:54.517Z,15.42
2023-05-04T03:35:54.565Z,15.44
2023-05-04T03:36:54.516Z,15.39
2023-05-04T03:37:54.487Z,15.38
2023-05-04T03:38:54.485Z,15.39
2023-05-04T03:39:54.459Z,15.38
2023-05-04T03:40:54.499Z,15.38
2023-05-04T03:41:54.508Z,15.38
2023-05-04T03:42:54.479Z,15.37
2023-05-04T03:43:54.454Z,15.37
2023-05-04T03:44:54.533Z,15.38
2023-05-04T03:45:54.445Z,15.34
2023-05-04T03:46:54.445Z,15.35
2023-05-04T03:47:54.468Z,15.35
2023-05-04T03:48:54.466Z,15.34
2023-05-04T03:49:54.421Z,15.34
2023-05-04T03:50:54.423Z,15.31
2023-05-04T03:51:54.410Z,15.33
2023-05-04T03:52:54.534Z,15.31
2023-05-04T03:53:54.453Z,15.31
2023-05-04T03:54:54.426Z,15.33
2023-05-04T03:55:54.399Z,15.33
2023-05-04T03:56:54.420Z,15.33
2023-05-04T03:57:54.397Z,15.31
2023-05-04T03:58:54.391Z,15.33
2023-05-04T03:59:57.032Z,15.30
2023-05-04T04:00:54.352Z,15.28
2023-05-04T04:01:54.332Z,15.30
2023-05-04T04:02:54.442Z,15.25
2023-05-04T04:03:54.501Z,15.25
2023-05-04T04:04:54.387Z,15.24
2023-05-04T04:05:54.361Z,15.27
2023-05-04T04:06:54.293Z,15.24
2023-05-04T04:07:54.282Z,15.23
2023-05-04T04:08:54.277Z,15.25
2023-05-04T04:09:54.282Z,15.21
2023-05-04T04:10:54.261Z,15.18
2023-05-04T04:11:54.311Z,15.21
2023-05-04T04:12:54.316Z,15.21
2023-05-04T04:13:54.250Z,15.18
2023-05-04T04:14:54.278Z,15.20
2023-05-04T04:15:54.248Z,15.17
2023-05-04T04:16:54.235Z,15.15
2023-05-04T04:17:54.304Z,15.14
2023-05-04T04:18:54.223Z,15.14
2023-05-04T04:19:54.358Z,15.13
2023-05-04T04:20:54.203Z,15.13
2023-05-04T04:21:54.199Z,15.11
2023-05-04T04:22:54.228Z,15.13
2023-05-04T04:23:54.178Z,15.11
2023-05-04T04:24:54.172Z,15.11
2023-05-04T04:25:54.224Z,15.13
2023-05-04T04:26:54.267Z,15.15
2023-05-04T04:27:54.203Z,15.14
2023-05-04T04:28:54.164Z,15.13
2023-05-04T04:29:54.173Z,15.13
2023-05-04T04:30:54.186Z,15.14
2023-05-04T04:31:55.038Z,15.11
2023-05-04T04:32:54.183Z,15.11
2023-05-04T04:33:54.187Z,15.10
2023-05-04T04:34:54.109Z,15.10
2023-05-04T04:35:54.112Z,15.11
2023-05-04T04:36:54.108Z,15.13
2023-05-04T04:37:54.106Z,15.08
2023-05-04T04:38:54.079Z,15.10
2023-05-04T04:39:54.148Z,15.11
2023-05-04T04:40:54.089Z,15.11
2023-05-04T04:41:54.088Z,15.10
2023-05-04T04:42:54.050Z,15.08
2023-05-04T04:43:54.050Z,15.10
2023-05-04T04:44:54.022Z,15.10
2023-05-04T04:45:54.004Z,15.08
2023-05-04T04:46:54.122Z,15.08
2023-05-04T04:47:54.187Z,15.07
2023-05-04T04:48:54.042Z,15.06
2023-05-04T04:49:54.051Z,15.08
2023-05-04T04:50:54.016Z,15.07
2023-05-04T04:51:54.016Z,15.08
2023-05-04T04:52:54.004Z,15.07
2023-05-04T04:53:54.041Z,15.10
2023-05-04T04:54:53.965Z,15.10
2023-05-04T04:55:54.062Z,15.08
2023-05-04T04:56:54.095Z,15.07
2023-05-04T04:57:54.412Z,15.06
2023-05-04T04:58:54.109Z,15.04
2023-05-04T04:59:54.160Z,15.03
2023-05-04T05:00:54.250Z,15.06
2023-05-04T05:01:54.220Z,15.04
2023-05-04T05:02:54.410Z,15.04
2023-05-04T05:03:54.302Z,15.04
2023-05-04T05:04:54.434Z,15.06
2023-05-04T05:05:54.351Z,15.06
2023-05-04T05:06:54.479Z,15.07
2023-05-04T05:07:54.438Z,15.06
2023-05-04T05:08:54.455Z,15.06
2023-05-04T05:09:54.508Z,15.10
2023-05-04T05:10:54.571Z,15.10
2023-05-04T05:11:54.543Z,15.10
2023-05-04T05:12:54.566Z,15.10
2023-05-04T05:13:54.563Z,15.13
2023-05-04T05:14:54.609Z,15.10
2023-05-04T05:15:54.702Z,15.14
2023-05-04T05:16:54.760Z,15.14
2023-05-04T05:17:54.914Z,15.15
2023-05-04T05:18:54.705Z,15.13
2023-05-04T05:19:54.768Z,15.15
2023-05-04T05:20:54.785Z,15.14
2023-05-04T05:21:54.827Z,15.17
2023-05-04T05:22:54.845Z,15.15
2023-05-04T05:23:54.854Z,15.17
2023-05-04T05:24:54.846Z,15.15
2023-05-04T05:25:54.913Z,15.17
2023-05-04T05:26:54.904Z,15.15
2023-05-04T05:27:55.444Z,15.18
2023-05-04T05:28:54.945Z,15.20
2023-05-04T05:29:54.972Z,15.23
2023-05-04T05:30:54.967Z,15.23
2023-05-04T05:31:55.001Z,15.23
2023-05-04T05:32:55.167Z,15.24
2023-05-04T05:33:55.061Z,15.11
2023-05-04T05:34:55.070Z,15.20
2023-05-04T05:35:55.025Z,15.20
2023-05-04T05:36:55.100Z,15.21
2023-05-04T05:37:55.151Z,15.18
2023-05-04T05:38:55.128Z,15.15
2023-05-04T05:39:55.117Z,15.20
2023-05-04T05:40:55.171Z,15.07
2023-05-04T05:41:55.157Z,15.13
2023-05-04T05:42:55.163Z,15.11
2023-05-04T05:43:55.182Z,15.15
2023-05-04T05:44:55.169Z,15.14
2023-05-04T05:45:55.214Z,15.20
2023-05-04T05:46:55.223Z,15.21
2023-05-04T05:47:55.636Z,15.24
2023-05-04T05:48:55.214Z,15.28
2023-05-04T05:49:55.243Z,15.30
2023-05-04T05:50:55.280Z,15.34
2023-05-04T05:51:55.250Z,15.37
2023-05-04T05:52:55.388Z,15.38
2023-05-04T05:53:55.306Z,15.39
2023-05-04T05:54:55.319Z,15.46
2023-05-04T05:55:55.320Z,15.44
2023-05-04T05:56:55.417Z,15.48
2023-05-04T05:57:55.431Z,15.51
2023-05-04T05:58:55.338Z,15.55
2023-05-04T05:59:55.400Z,15.56
2023-05-04T06:00:55.359Z,15.61
2023-05-04T06:01:55.374Z,15.61
2023-05-04T06:02:55.442Z,15.62
2023-05-04T06:03:55.618Z,15.58
2023-05-04T06:04:55.441Z,15.61
2023-05-04T06:05:55.329Z,15.61
2023-05-04T06:06:55.418Z,15.58
2023-05-04T06:07:55.404Z,15.59
2023-05-04T06:08:55.426Z,15.58
2023-05-04T06:09:55.448Z,15.61
2023-05-04T06:10:55.337Z,15.65
2023-05-04T06:11:55.758Z,15.66
2023-05-04T06:12:55.395Z,15.66
2023-05-04T06:13:55.385Z,15.72
2023-05-04T06:14:55.340Z,15.62
2023-05-04T06:15:55.324Z,15.49
2023-05-04T06:16:55.491Z,15.53
2023-05-04T06:17:55.370Z,15.56
2023-05-04T06:18:55.319Z,15.62
2023-05-04T06:19:55.323Z,15.69
2023-05-04T06:20:55.431Z,15.73
2023-05-04T06:21:55.439Z,15.76
2023-05-04T06:22:55.920Z,15.80
2023-05-04T06:23:55.590Z,15.82
2023-05-04T06:25:00.400Z,15.76
2023-05-04T06:25:56.680Z,15.78
2023-05-04T06:26:55.620Z,15.80
2023-05-04T06:27:55.592Z,15.87
2023-05-04T06:28:55.579Z,15.97
2023-05-04T06:29:55.564Z,16.03
2023-05-04T06:30:55.589Z,16.06
2023-05-04T06:31:55.621Z,16.11
2023-05-04T06:32:55.938Z,16.10
2023-05-04T06:33:55.570Z,16.16
2023-05-04T06:34:55.601Z,16.23
2023-05-04T06:35:55.576Z,16.23
2023-05-04T06:36:55.523Z,16.27
2023-05-04T06:37:56.030Z,16.28
2023-05-04T06:38:55.527Z,16.32
2023-05-04T06:39:55.519Z,16.29
2023-05-04T06:40:55.527Z,16.34
2023-05-04T06:41:55.528Z,16.36
2023-05-04T06:42:55.970Z,16.34
2023-05-04T06:43:58.196Z,16.38
2023-05-04T06:44:55.503Z,16.36
2023-05-04T06:45:55.531Z,16.42
2023-05-04T06:46:55.494Z,16.42
2023-05-04T06:47:55.986Z,16.47
2023-05-04T06:48:55.464Z,16.36
2023-05-04T06:49:55.494Z,16.35
2023-05-04T06:50:55.472Z,16.23
2023-05-04T06:51:55.479Z,16.32
2023-05-04T06:52:55.483Z,16.44
2023-05-04T06:53:55.450Z,16.32
2023-05-04T06:54:55.477Z,16.42
2023-05-04T06:55:55.463Z,16.50
2023-05-04T06:56:55.403Z,16.54
2023-05-04T06:57:55.944Z,16.56
2023-05-04T06:58:55.440Z,16.52
2023-05-04T06:59:55.458Z,16.59
2023-05-04T07:00:55.455Z,16.61
2023-05-04T07:01:55.416Z,16.50
2023-05-04T07:02:55.424Z,16.56
2023-05-04T07:03:55.403Z,16.62
2023-05-04T07:04:55.401Z,16.51
2023-05-04T07:05:55.379Z,16.47
2023-05-04T07:06:55.373Z,16.58
2023-05-04T07:07:55.412Z,16.62
2023-05-04T07:08:55.368Z,16.55
2023-05-04T07:09:55.350Z,16.55
2023-05-04T07:10:55.365Z,16.69
2023-05-04T07:11:55.319Z,16.73
2023-05-04T07:12:55.442Z,16.82
2023-05-04T07:13:55.341Z,16.86
2023-05-04T07:14:55.297Z,16.87
2023-05-04T07:15:55.438Z,16.69
2023-05-04T07:16:55.304Z,16.79
2023-05-04T07:17:55.471Z,16.86
2023-05-04T07:18:55.305Z,16.83
2023-05-04T07:19:55.331Z,16.90
2023-05-04T07:21:01.652Z,16.99
2023-05-04T07:21:56.287Z,16.99
2023-05-04T07:22:55.287Z,17.00
2023-05-04T07:23:55.319Z,16.94
2023-05-04T07:24:55.242Z,16.96
2023-05-04T07:25:55.241Z,17.02
2023-05-04T07:26:55.265Z,17.10
2023-05-04T07:27:55.215Z,17.17
2023-05-04T07:28:55.230Z,17.21
2023-05-04T07:29:55.384Z,17.27
2023-05-04T07:30:55.234Z,17.24
2023-05-04T07:31:55.258Z,17.31
2023-05-04T07:32:55.451Z,17.34
2023-05-04T07:33:55.183Z,17.38
2023-05-04T07:34:55.210Z,17.42
2023-05-04T07:35:55.178Z,17.46
2023-05-04T07:36:55.169Z,17.52
2023-05-04T07:37:55.409Z,17.53
2023-05-04T07:38:55.142Z,17.58
2023-05-04T07:39:55.178Z,17.65
2023-05-04T07:40:55.149Z,17.45
2023-05-04T07:41:55.252Z,17.58
2023-05-04T07:42:55.543Z,17.65
2023-05-04T07:43:55.165Z,17.69
2023-05-04T07:44:55.183Z,17.78
2023-05-04T07:45:55.286Z,17.75
2023-05-04T07:46:55.304Z,17.73
2023-05-04T07:47:55.398Z,17.64
2023-05-04T07:48:55.365Z,17.68
2023-05-04T07:49:55.409Z,17.79
2023-05-04T07:50:55.466Z,17.79
2023-05-04T07:51:55.546Z,17.86
2023-05-04T07:52:55.683Z,17.89
2023-05-04T07:53:55.654Z,17.94
2023-05-04T07:54:55.744Z,17.92
2023-05-04T07:55:55.806Z,17.99
2023-05-04T07:56:55.842Z,18.06
2023-05-04T07:57:55.944Z,17.85
2023-05-04T07:58:55.906Z,17.85
2023-05-04T07:59:55.908Z,17.83
2023-05-04T08:00:55.985Z,17.90
2023-05-04T08:01:56.062Z,17.99
2023-05-04T08:02:56.493Z,18.06
2023-05-04T08:03:56.088Z,18.11
2023-05-04T08:04:56.097Z,18.18
2023-05-04T08:05:56.046Z,18.27
2023-05-04T08:06:56.101Z,18.34
2023-05-04T08:07:56.128Z,18.37
2023-05-04T08:08:56.163Z,18.44
2023-05-04T08:09:56.156Z,18.30
2023-05-04T08:11:02.004Z,18.33
2023-05-04T08:11:57.145Z,18.27
2023-05-04T08:12:56.151Z,18.38
2023-05-04T08:13:56.437Z,18.42
2023-05-04T08:14:56.161Z,18.42
2023-05-04T08:15:56.130Z,18.48
2023-05-04T08:16:56.116Z,18.56
2023-05-04T08:17:56.130Z,18.62
2023-05-04T08:18:56.077Z,18.62
2023-05-04T08:19:56.096Z,18.69
2023-05-04T08:20:56.108Z,18.65
2023-05-04T08:21:56.089Z,18.66
2023-05-04T08:22:56.268Z,18.73
2023-05-04T08:23:56.117Z,18.78
2023-05-04T08:24:56.185Z,18.88
2023-05-04T08:25:56.173Z,18.90
2023-05-04T08:27:07.013Z,18.97
2023-05-04T08:27:57.190Z,18.99
2023-05-04T08:28:56.243Z,19.05
2023-05-04T08:29:56.173Z,19.07
2023-05-04T08:30:56.234Z,19.16
2023-05-04T08:31:56.199Z,18.93
2023-05-04T08:32:56.208Z,19.05
2023-05-04T08:33:56.388Z,19.11
2023-05-04T08:34:56.199Z,19.16
2023-05-04T08:35:56.165Z,19.20
2023-05-04T08:36:56.148Z,19.20
2023-05-04T08:37:56.146Z,19.28
2023-05-04T08:38:56.140Z,19.30
2023-05-04T08:39:56.140Z,19.21
2023-05-04T08:40:56.122Z,19.33
2023-05-04T08:41:56.089Z,19.38
2023-05-04T08:42:56.110Z,19.42
2023-05-04T08:43:56.111Z,19.48
2023-05-04T08:44:56.109Z,19.54
2023-05-04T08:45:56.143Z,19.58
2023-05-04T08:46:56.183Z,19.57
2023-05-04T08:47:56.162Z,19.52
2023-05-04T08:48:56.125Z,19.58
2023-05-04T08:49:56.055Z,19.58
2023-05-04T08:50:56.150Z,19.66
2023-05-04T08:51:56.158Z,19.73
2023-05-04T08:52:56.171Z,19.78
2023-05-04T08:53:56.264Z,19.78
2023-05-04T08:54:56.252Z,19.82
2023-05-04T08:55:56.335Z,19.61
2023-05-04T08:56:56.391Z,19.64
2023-05-04T08:57:56.442Z,19.62
2023-05-04T08:58:56.478Z,19.70
2023-05-04T08:59:56.568Z,19.75
2023-05-04T09:00:56.732Z,19.80
2023-05-04T09:01:56.710Z,19.86
2023-05-04T09:02:56.854Z,19.89
2023-05-04T09:03:56.986Z,19.92
2023-05-04T09:04:56.800Z,19.86
2023-05-04T09:05:56.913Z,19.82
2023-05-04T09:06:56.967Z,19.83
2023-05-04T09:07:57.017Z,19.79
2023-05-04T09:08:57.052Z,19.80
2023-05-04T09:09:57.125Z,19.72
2023-05-04T09:10:57.187Z,19.54
2023-05-04T09:11:57.193Z,19.57
2023-05-04T09:12:57.340Z,19.44
2023-05-04T09:13:57.333Z,19.33
2023-05-04T09:14:57.373Z,19.38
2023-05-04T09:15:57.428Z,19.41
2023-05-04T09:16:57.519Z,19.39
2023-05-04T09:17:58.136Z,19.42
2023-05-04T09:18:57.617Z,19.37
2023-05-04T09:19:57.650Z,19.38
2023-05-04T09:20:57.671Z,19.42
2023-05-04T09:21:58.115Z,19.48
2023-05-04T09:22:57.690Z,19.59
2023-05-04T09:23:57.789Z,19.48
2023-05-04T09:24:57.751Z,19.70
2023-05-04T09:25:57.762Z,19.75
2023-05-04T09:26:57.706Z,19.72
2023-05-04T09:27:57.895Z,19.76
2023-05-04T09:28:57.851Z,19.69
2023-05-04T09:29:57.815Z,19.75
2023-05-04T09:30:57.814Z,19.64
2023-05-04T09:31:57.796Z,19.68
2023-05-04T09:32:57.974Z,19.70
2023-05-04T09:33:57.908Z,19.80
2023-05-04T09:34:58.025Z,19.86
2023-05-04T09:35:58.152Z,20.05
2023-05-04T09:36:58.046Z,20.17
2023-05-04T09:37:58.119Z,20.27
2023-05-04T09:38:58.164Z,20.37
2023-05-04T09:39:58.167Z,20.47
2023-05-04T09:40:58.172Z,20.62
2023-05-04T09:41:58.192Z,20.52
2023-05-04T09:42:58.183Z,20.42
2023-05-04T09:43:58.252Z,20.38
2023-05-04T09:44:58.201Z,20.30
2023-05-04T09:45:58.295Z,20.35
2023-05-04T09:46:58.218Z,20.10
2023-05-04T09:47:58.315Z,20.30
2023-05-04T09:48:58.271Z,20.38
2023-05-04T09:49:58.270Z,20.45
2023-05-04T09:50:58.299Z,20.44
2023-05-04T09:51:58.337Z,20.56
2023-05-04T09:52:58.294Z,20.61
2023-05-04T09:53:58.356Z,20.69
2023-05-04T09:54:58.328Z,20.68
2023-05-04T09:56:00.048Z,20.47
2023-05-04T09:56:58.337Z,20.25
2023-05-04T09:57:58.302Z,20.34
2023-05-04T09:58:58.286Z,20.35
2023-05-04T09:59:58.284Z,20.12
2023-05-04T10:00:58.274Z,20.00
2023-05-04T10:02:00.442Z,20.19
2023-05-04T10:02:59.337Z,20.28
2023-05-04T10:03:58.442Z,20.30
2023-05-04T10:04:58.301Z,20.44
2023-05-04T10:05:58.312Z,20.45
2023-05-04T10:06:58.213Z,20.52
2023-05-04T10:07:58.248Z,20.50
2023-05-04T10:08:58.249Z,20.62
2023-05-04T10:09:58.215Z,20.65
2023-05-04T10:10:58.197Z,20.59
2023-05-04T10:12:00.390Z,20.51
2023-05-04T10:12:58.305Z,20.48
2023-05-04T10:13:58.361Z,20.44
2023-05-04T10:14:58.380Z,20.62
2023-05-04T10:15:58.449Z,20.67
2023-05-04T10:16:58.497Z,20.71
2023-05-04T10:17:58.548Z,20.71
2023-05-04T10:18:58.557Z,20.79
2023-05-04T10:19:58.641Z,20.83
2023-05-04T10:20:58.644Z,20.88
2023-05-04T10:21:58.696Z,20.99
2023-05-04T10:22:58.732Z,21.07
2023-05-04T10:23:58.765Z,21.16
2023-05-04T10:24:58.800Z,21.27
2023-05-04T10:25:58.864Z,21.30
2023-05-04T10:26:58.886Z,21.34
2023-05-04T10:27:58.902Z,21.31
2023-05-04T10:28:58.935Z,21.34
2023-05-04T10:29:59.009Z,21.27
2023-05-04T10:30:59.124Z,21.41
2023-05-04T10:31:59.052Z,21.40
2023-05-04T10:32:59.109Z,21.05
2023-05-04T10:33:59.518Z,21.20
2023-05-04T10:34:59.086Z,21.26
2023-05-04T10:35:59.229Z,21.38
2023-05-04T10:36:59.074Z,21.50
2023-05-04T10:37:59.134Z,21.55
2023-05-04T10:38:59.504Z,21.50
2023-05-04T10:39:59.307Z,21.57
2023-05-04T10:40:59.342Z,21.55
2023-05-04T10:41:59.451Z,21.50
2023-05-04T10:42:59.435Z,21.59
2023-05-04T10:43:59.559Z,21.54
2023-05-04T10:44:59.707Z,21.59
2023-05-04T10:45:59.693Z,21.65
2023-05-04T10:46:59.936Z,21.64
2023-05-04T10:47:59.844Z,21.64
2023-05-04T10:48:59.849Z,21.51
2023-05-04T10:49:59.870Z,21.51
2023-05-04T10:51:01.571Z,21.50
2023-05-04T10:52:01.850Z,21.52
2023-05-04T10:53:00.259Z,21.64
2023-05-04T10:54:00.178Z,21.66
2023-05-04T10:55:00.259Z,21.74
2023-05-04T10:56:00.180Z,21.66
2023-05-04T10:57:00.500Z,21.79
2023-05-04T10:58:01.232Z,21.91
2023-05-04T10:59:00.405Z,22.02
2023-05-04T11:00:00.317Z,22.06
2023-05-04T11:01:00.373Z,21.93
2023-05-04T11:02:00.410Z,21.81
2023-05-04T11:03:00.416Z,21.92
2023-05-04T11:04:00.490Z,21.97
2023-05-04T11:05:00.429Z,21.97
2023-05-04T11:06:01.352Z,22.03
2023-05-04T11:07:00.408Z,21.92
2023-05-04T11:08:00.584Z,21.97
2023-05-04T11:09:00.436Z,21.84
2023-05-04T11:10:00.645Z,21.92
2023-05-04T11:12:20.136Z,21.97
2023-05-04T11:14:44.732Z,22.06
2023-05-04T11:15:39.741Z,22.10
2023-05-04T11:18:01.115Z,22.27
2023-05-04T11:19:15.088Z,22.30
2023-05-04T11:20:00.783Z,22.41
2023-05-04T11:21:00.739Z,22.46
2023-05-04T11:26:04.735Z,22.74
2023-05-04T11:26:59.877Z,22.72
2023-05-04T11:27:59.927Z,22.68
2023-05-04T11:28:59.872Z,22.80
2023-05-04T11:30:12.043Z,22.92
2023-05-04T11:31:15.697Z,22.94
2023-05-04T11:32:32.456Z,22.88
2023-05-04T11:34:38.676Z,22.91
2023-05-04T11:35:53.002Z,23.06
2023-05-04T11:36:38.690Z,23.14
2023-05-04T11:37:38.664Z,22.91
2023-05-04T11:38:38.638Z,22.85
2023-05-04T11:39:38.717Z,22.94
2023-05-04T11:40:38.719Z,23.05
2023-05-04T11:41:38.775Z,23.16
2023-05-04T11:42:38.824Z,23.22
2023-05-04T11:43:38.945Z,23.26
2023-05-04T11:44:38.970Z,23.27
2023-05-04T11:45:38.936Z,23.26
2023-05-04T11:46:38.973Z,23.31
2023-05-04T11:47:38.993Z,23.34
2023-05-04T11:48:38.933Z,23.40
2023-05-04T11:49:38.942Z,23.43
2023-05-04T11:50:39.013Z,23.44
2023-05-04T11:51:38.994Z,23.51
2023-05-04T11:52:38.956Z,23.53
2023-05-04T11:53:38.971Z,23.56
2023-05-04T11:54:39.011Z,23.67
2023-05-04T11:55:39.151Z,23.62
2023-05-04T11:56:39.082Z,23.61
2023-05-04T11:57:39.174Z,23.68
2023-05-04T11:58:39.354Z,23.78
2023-05-04T11:59:39.288Z,23.82
2023-05-04T12:00:40.477Z,23.82
2023-05-04T12:01:39.418Z,23.85
2023-05-04T12:02:39.528Z,23.89
2023-05-04T12:03:48.529Z,23.88
2023-05-04T12:04:40.506Z,24.05
2023-05-04T12:05:39.513Z,24.11
2023-05-04T12:06:39.527Z,24.24
2023-05-04T12:07:39.465Z,24.27
2023-05-04T12:08:39.481Z,24.33
2023-05-04T12:09:39.459Z,24.34
2023-05-04T12:10:39.481Z,24.33
2023-05-04T12:11:39.425Z,24.39
2023-05-04T12:12:39.550Z,24.36
2023-05-04T12:13:39.439Z,24.40
2023-05-04T12:14:39.864Z,24.39
2023-05-04T12:15:39.791Z,24.34
2023-05-04T12:16:39.999Z,24.39
2023-05-04T12:17:40.672Z,24.41
2023-05-04T12:18:39.777Z,24.37
2023-05-04T12:19:39.613Z,24.40
2023-05-04T12:20:39.539Z,24.49
2023-05-04T12:21:39.507Z,24.56
2023-05-04T12:22:39.556Z,24.56
2023-05-04T12:23:39.516Z,24.53
2023-05-04T12:24:39.576Z,24.64
2023-05-04T12:25:50.916Z,24.75
2023-05-04T12:26:40.563Z,24.64
2023-05-04T12:27:39.547Z,24.66
2023-05-04T12:28:39.584Z,24.75
2023-05-04T12:29:39.849Z,24.58
2023-05-04T12:30:39.579Z,24.61
2023-05-04T12:31:39.547Z,24.72
2023-05-04T12:32:39.512Z,24.79
2023-05-04T12:33:39.553Z,24.79
2023-05-04T12:34:39.514Z,24.84
2023-05-04T12:35:39.513Z,24.86
2023-05-04T12:36:39.496Z,24.84
2023-05-04T12:37:39.577Z,24.82
2023-05-04T12:38:39.488Z,24.84
2023-05-04T12:39:39.865Z,24.78
2023-05-04T12:40:39.474Z,24.86
2023-05-04T12:41:39.451Z,24.74
2023-05-04T12:42:39.428Z,24.77
2023-05-04T12:43:39.467Z,24.91
2023-05-04T12:44:39.453Z,24.98
2023-05-04T12:45:39.556Z,24.95
2023-05-04T12:46:39.425Z,25.02
2023-05-04T12:47:39.435Z,25.12
2023-05-04T12:48:39.404Z,25.15
2023-05-04T12:49:39.851Z,25.18
2023-05-04T12:50:39.441Z,25.19
2023-05-04T12:51:39.474Z,24.91
2023-05-04T12:52:39.536Z,24.81
2023-05-04T12:53:39.468Z,24.99
2023-05-04T12:54:39.446Z,24.99
2023-05-04T12:55:39.594Z,24.88
2023-05-04T12:56:39.631Z,25.06
2023-05-04T12:57:39.641Z,25.12
2023-05-04T12:58:39.665Z,25.23
2023-05-04T12:59:39.700Z,25.28
2023-05-04T13:00:51.318Z,25.32
2023-05-04T13:01:39.966Z,25.40
2023-05-04T13:02:40.010Z,25.32
2023-05-04T13:03:40.038Z,25.32
2023-05-04T13:04:39.982Z,25.36